sensor_id;sensor_type;location;lat;lon;timestamp;P1;durP1;ratioP1;P2;durP2;ratioP2
54388;SDS011;40975;50.390;8.640;2023-05-23T00:01:11;28.05;;;17.70;;
54388;SDS011;40975;50.390;8.640;2023-05-23T00:03:38;27.05;;;16.75;;
54388;SDS011;40975;50.390;8.640;2023-05-23T00:06:05;27.05;;;18.08;;
54388;SDS011;40975;50.390;8.640;2023-05-23T00:08:30;29.27;;;19.05;;
54388;SDS011;40975;50.390;8.640;2023-05-23T00:10:56;24.45;;;16.55;;
54388;SDS011;40975;50.390;8.640;2023-05-23T00:13:21;26.48;;;16.48;;
54388;SDS011;40975;50.390;8.640;2023-05-23T00:15:47;27.42;;;17.08;;
54388;SDS011;40975;50.390;8.640;2023-05-23T00:18:12;28.55;;;15.80;;
54388;SDS011;40975;50.390;8.640;2023-05-23T00:20:39;27.02;;;17.25;;
54388;SDS011;40975;50.390;8.640;2023-05-23T00:23:06;28.48;;;17.95;;
54388;SDS011;40975;50.390;8.640;2023-05-23T00:25:33;28.30;;;18.50;;
54388;SDS011;40975;50.390;8.640;2023-05-23T00:27:59;32.75;;;20.52;;
54388;SDS011;40975;50.390;8.640;2023-05-23T00:30:25;29.90;;;18.42;;
54388;SDS011;40975;50.390;8.640;2023-05-23T00:32:54;28.95;;;18.90;;
54388;SDS011;40975;50.390;8.640;2023-05-23T00:35:20;31.55;;;20.10;;
54388;SDS011;40975;50.390;8.640;2023-05-23T00:37:46;30.50;;;19.50;;
54388;SDS011;40975;50.390;8.640;2023-05-23T00:40:11;36.17;;;20.10;;
54388;SDS011;40975;50.390;8.640;2023-05-23T00:42:37;31.40;;;19.58;;
54388;SDS011;40975;50.390;8.640;2023-05-23T00:45:02;30.48;;;19.52;;
54388;SDS011;40975;50.390;8.640;2023-05-23T00:47:28;36.50;;;20.48;;
54388;SDS011;40975;50.390;8.640;2023-05-23T00:49:53;31.30;;;20.65;;
54388;SDS011;40975;50.390;8.640;2023-05-23T00:52:19;33.90;;;20.55;;
54388;SDS011;40975;50.390;8.640;2023-05-23T00:54:44;34.30;;;20.55;;
54388;SDS011;40975;50.390;8.640;2023-05-23T00:57:10;33.95;;;20.05;;
54388;SDS011;40975;50.390;8.640;2023-05-23T00:59:35;30.92;;;19.75;;
54388;SDS011;40975;50.390;8.640;2023-05-23T01:02:01;33.65;;;20.70;;
54388;SDS011;40975;50.390;8.640;2023-05-23T01:04:27;36.90;;;21.85;;
54388;SDS011;40975;50.390;8.640;2023-05-23T01:06:53;32.88;;;20.85;;
54388;SDS011;40975;50.390;8.640;2023-05-23T01:09:20;33.00;;;21.85;;
54388;SDS011;40975;50.390;8.640;2023-05-23T01:12:08;34.60;;;20.73;;
54388;SDS011;40975;50.390;8.640;2023-05-23T01:14:51;33.30;;;22.05;;
54388;SDS011;40975;50.390;8.640;2023-05-23T01:17:21;35.17;;;21.02;;
54388;SDS011;40975;50.390;8.640;2023-05-23T01:20:03;35.90;;;20.92;;
54388;SDS011;40975;50.390;8.640;2023-05-23T01:28:11;31.73;;;20.17;;
54388;SDS011;40975;50.390;8.640;2023-05-23T01:30:40;35.08;;;20.55;;
54388;SDS011;40975;50.390;8.640;2023-05-23T01:33:08;32.25;;;20.45;;
54388;SDS011;40975;50.390;8.640;2023-05-23T01:35:35;31.52;;;19.35;;
54388;SDS011;40975;50.390;8.640;2023-05-23T01:38:01;29.60;;;18.70;;
54388;SDS011;40975;50.390;8.640;2023-05-23T01:40:27;28.40;;;17.85;;
54388;SDS011;40975;50.390;8.640;2023-05-23T01:42:52;30.13;;;17.15;;
54388;SDS011;40975;50.390;8.640;2023-05-23T01:45:21;24.55;;;15.38;;
54388;SDS011;40975;50.390;8.640;2023-05-23T01:47:50;24.60;;;15.68;;
54388;SDS011;40975;50.390;8.640;2023-05-23T01:50:18;22.60;;;15.18;;
54388;SDS011;40975;50.390;8.640;2023-05-23T01:52:44;24.13;;;14.90;;
54388;SDS011;40975;50.390;8.640;2023-05-23T01:55:10;25.33;;;16.38;;
54388;SDS011;40975;50.390;8.640;2023-05-23T01:57:39;23.00;;;14.80;;
54388;SDS011;40975;50.390;8.640;2023-05-23T02:00:06;25.00;;;15.40;;
54388;SDS011;40975;50.390;8.640;2023-05-23T02:02:38;22.08;;;13.77;;
54388;SDS011;40975;50.390;8.640;2023-05-23T02:05:04;22.65;;;14.50;;
54388;SDS011;40975;50.390;8.640;2023-05-23T02:07:30;21.65;;;14.38;;
54388;SDS011;40975;50.390;8.640;2023-05-23T02:09:55;24.02;;;14.23;;
54388;SDS011;40975;50.390;8.640;2023-05-23T02:12:20;20.00;;;14.45;;
54388;SDS011;40975;50.390;8.640;2023-05-23T02:14:46;25.25;;;16.67;;
54388;SDS011;40975;50.390;8.640;2023-05-23T02:17:11;24.38;;;16.02;;
54388;SDS011;40975;50.390;8.640;2023-05-23T02:19:39;26.23;;;17.27;;
54388;SDS011;40975;50.390;8.640;2023-05-23T02:22:04;28.10;;;16.58;;
54388;SDS011;40975;50.390;8.640;2023-05-23T02:24:30;27.23;;;16.55;;
54388;SDS011;40975;50.390;8.640;2023-05-23T02:26:55;22.73;;;14.68;;
54388;SDS011;40975;50.390;8.640;2023-05-23T02:29:20;24.20;;;14.55;;
54388;SDS011;40975;50.390;8.640;2023-05-23T02:31:45;24.10;;;15.70;;
54388;SDS011;40975;50.390;8.640;2023-05-23T02:34:11;22.02;;;14.63;;
54388;SDS011;40975;50.390;8.640;2023-05-23T02:36:36;23.00;;;14.10;;
54388;SDS011;40975;50.390;8.640;2023-05-23T02:39:03;22.15;;;15.05;;
54388;SDS011;40975;50.390;8.640;2023-05-23T02:41:30;23.63;;;14.93;;
54388;SDS011;40975;50.390;8.640;2023-05-23T02:43:56;23.75;;;13.70;;
54388;SDS011;40975;50.390;8.640;2023-05-23T02:46:22;19.52;;;12.38;;
54388;SDS011;40975;50.390;8.640;2023-05-23T02:48:48;19.98;;;11.80;;
54388;SDS011;40975;50.390;8.640;2023-05-23T02:51:13;21.25;;;13.05;;
54388;SDS011;40975;50.390;8.640;2023-05-23T02:53:39;19.77;;;12.70;;
54388;SDS011;40975;50.390;8.640;2023-05-23T02:56:05;19.35;;;12.18;;
54388;SDS011;40975;50.390;8.640;2023-05-23T02:58:33;19.73;;;12.73;;
54388;SDS011;40975;50.390;8.640;2023-05-23T03:01:01;21.42;;;12.73;;
54388;SDS011;40975;50.390;8.640;2023-05-23T03:03:27;19.88;;;12.52;;
54388;SDS011;40975;50.390;8.640;2023-05-23T03:05:53;19.15;;;12.15;;
54388;SDS011;40975;50.390;8.640;2023-05-23T03:08:18;20.45;;;11.93;;
54388;SDS011;40975;50.390;8.640;2023-05-23T03:10:44;20.13;;;13.82;;
54388;SDS011;40975;50.390;8.640;2023-05-23T03:13:09;19.38;;;12.80;;
54388;SDS011;40975;50.390;8.640;2023-05-23T03:15:35;19.52;;;12.63;;
54388;SDS011;40975;50.390;8.640;2023-05-23T03:18:00;20.85;;;13.68;;
54388;SDS011;40975;50.390;8.640;2023-05-23T03:20:25;21.15;;;12.75;;
54388;SDS011;40975;50.390;8.640;2023-05-23T03:22:51;21.45;;;14.07;;
54388;SDS011;40975;50.390;8.640;2023-05-23T03:25:16;22.75;;;13.95;;
54388;SDS011;40975;50.390;8.640;2023-05-23T03:27:42;22.60;;;13.75;;
54388;SDS011;40975;50.390;8.640;2023-05-23T03:30:07;20.63;;;13.45;;
54388;SDS011;40975;50.390;8.640;2023-05-23T03:32:34;24.70;;;14.13;;
54388;SDS011;40975;50.390;8.640;2023-05-23T03:34:59;23.90;;;14.13;;
54388;SDS011;40975;50.390;8.640;2023-05-23T03:37:25;22.63;;;14.20;;
54388;SDS011;40975;50.390;8.640;2023-05-23T03:39:50;20.65;;;12.52;;
54388;SDS011;40975;50.390;8.640;2023-05-23T03:42:16;19.88;;;12.95;;
54388;SDS011;40975;50.390;8.640;2023-05-23T03:44:42;17.95;;;12.15;;
54388;SDS011;40975;50.390;8.640;2023-05-23T03:47:07;22.95;;;12.15;;
54388;SDS011;40975;50.390;8.640;2023-05-23T03:49:35;18.38;;;12.70;;
54388;SDS011;40975;50.390;8.640;2023-05-23T03:52:00;19.65;;;11.80;;
54388;SDS011;40975;50.390;8.640;2023-05-23T03:54:27;18.10;;;11.35;;
54388;SDS011;40975;50.390;8.640;2023-05-23T03:56:52;20.20;;;11.98;;
54388;SDS011;40975;50.390;8.640;2023-05-23T03:59:18;18.23;;;11.40;;
54388;SDS011;40975;50.390;8.640;2023-05-23T04:01:44;18.50;;;11.05;;
54388;SDS011;40975;50.390;8.640;2023-05-23T04:04:09;20.00;;;11.05;;
54388;SDS011;40975;50.390;8.640;2023-05-23T04:06:35;18.02;;;11.55;;
54388;SDS011;40975;50.390;8.640;2023-05-23T04:09:02;17.63;;;11.02;;
54388;SDS011;40975;50.390;8.640;2023-05-23T04:11:30;20.63;;;11.80;;
54388;SDS011;40975;50.390;8.640;2023-05-23T04:13:56;19.98;;;11.60;;
54388;SDS011;40975;50.390;8.640;2023-05-23T04:16:22;18.77;;;12.20;;
54388;SDS011;40975;50.390;8.640;2023-05-23T04:18:48;21.40;;;11.93;;
54388;SDS011;40975;50.390;8.640;2023-05-23T04:21:14;23.33;;;13.07;;
54388;SDS011;40975;50.390;8.640;2023-05-23T04:23:49;20.25;;;12.02;;
54388;SDS011;40975;50.390;8.640;2023-05-23T04:26:15;22.40;;;12.73;;
54388;SDS011;40975;50.390;8.640;2023-05-23T04:28:46;22.00;;;12.50;;
54388;SDS011;40975;50.390;8.640;2023-05-23T04:31:13;20.52;;;12.73;;
54388;SDS011;40975;50.390;8.640;2023-05-23T04:33:40;23.02;;;13.48;;
54388;SDS011;40975;50.390;8.640;2023-05-23T04:36:05;24.35;;;13.48;;
54388;SDS011;40975;50.390;8.640;2023-05-23T04:38:36;24.42;;;14.13;;
54388;SDS011;40975;50.390;8.640;2023-05-23T04:41:06;22.38;;;13.10;;
54388;SDS011;40975;50.390;8.640;2023-05-23T04:43:54;24.58;;;13.80;;
54388;SDS011;40975;50.390;8.640;2023-05-23T04:46:42;20.92;;;13.68;;
54388;SDS011;40975;50.390;8.640;2023-05-23T04:49:14;20.10;;;12.68;;
54388;SDS011;40975;50.390;8.640;2023-05-23T04:51:41;24.73;;;13.52;;
54388;SDS011;40975;50.390;8.640;2023-05-23T04:54:14;23.58;;;13.50;;
54388;SDS011;40975;50.390;8.640;2023-05-23T04:56:39;22.60;;;13.40;;
54388;SDS011;40975;50.390;8.640;2023-05-23T04:59:05;23.20;;;13.15;;
54388;SDS011;40975;50.390;8.640;2023-05-23T05:01:33;24.17;;;14.45;;
54388;SDS011;40975;50.390;8.640;2023-05-23T05:03:58;22.27;;;14.05;;
54388;SDS011;40975;50.390;8.640;2023-05-23T05:06:24;22.23;;;13.70;;
54388;SDS011;40975;50.390;8.640;2023-05-23T05:08:51;21.45;;;13.32;;
54388;SDS011;40975;50.390;8.640;2023-05-23T05:11:19;22.77;;;14.23;;
54388;SDS011;40975;50.390;8.640;2023-05-23T05:13:44;23.05;;;13.77;;
54388;SDS011;40975;50.390;8.640;2023-05-23T05:16:09;24.27;;;14.65;;
54388;SDS011;40975;50.390;8.640;2023-05-23T05:18:36;24.10;;;13.70;;
54388;SDS011;40975;50.390;8.640;2023-05-23T05:21:01;21.08;;;12.77;;
54388;SDS011;40975;50.390;8.640;2023-05-23T05:23:29;21.05;;;13.30;;
54388;SDS011;40975;50.390;8.640;2023-05-23T05:25:57;20.98;;;11.55;;
54388;SDS011;40975;50.390;8.640;2023-05-23T05:28:22;18.08;;;11.27;;
54388;SDS011;40975;50.390;8.640;2023-05-23T05:30:50;19.20;;;11.45;;
54388;SDS011;40975;50.390;8.640;2023-05-23T05:33:20;17.10;;;10.38;;
54388;SDS011;40975;50.390;8.640;2023-05-23T05:35:51;16.23;;;10.68;;
54388;SDS011;40975;50.390;8.640;2023-05-23T05:38:17;18.25;;;10.25;;
54388;SDS011;40975;50.390;8.640;2023-05-23T05:40:42;12.95;;;7.97;;
54388;SDS011;40975;50.390;8.640;2023-05-23T05:43:08;10.88;;;7.05;;
54388;SDS011;40975;50.390;8.640;2023-05-23T05:45:34;11.82;;;7.30;;
54388;SDS011;40975;50.390;8.640;2023-05-23T05:48:00;10.40;;;6.57;;
54388;SDS011;40975;50.390;8.640;2023-05-23T05:50:25;8.57;;;6.03;;
54388;SDS011;40975;50.390;8.640;2023-05-23T05:52:51;9.02;;;6.13;;
54388;SDS011;40975;50.390;8.640;2023-05-23T05:55:16;7.07;;;5.38;;
54388;SDS011;40975;50.390;8.640;2023-05-23T05:57:45;6.70;;;4.50;;
54388;SDS011;40975;50.390;8.640;2023-05-23T06:00:11;7.15;;;4.10;;
54388;SDS011;40975;50.390;8.640;2023-05-23T06:02:43;4.78;;;3.88;;
54388;SDS011;40975;50.390;8.640;2023-05-23T06:05:16;6.97;;;4.75;;
54388;SDS011;40975;50.390;8.640;2023-05-23T06:07:43;6.15;;;4.80;;
54388;SDS011;40975;50.390;8.640;2023-05-23T06:10:09;6.22;;;4.05;;
54388;SDS011;40975;50.390;8.640;2023-05-23T06:12:38;10.23;;;4.45;;
54388;SDS011;40975;50.390;8.640;2023-05-23T06:15:04;6.68;;;4.78;;
54388;SDS011;40975;50.390;8.640;2023-05-23T06:17:30;7.47;;;4.40;;
54388;SDS011;40975;50.390;8.640;2023-05-23T06:19:55;5.10;;;3.75;;
54388;SDS011;40975;50.390;8.640;2023-05-23T06:22:21;5.28;;;3.75;;
54388;SDS011;40975;50.390;8.640;2023-05-23T06:24:46;5.78;;;3.47;;
54388;SDS011;40975;50.390;8.640;2023-05-23T06:27:12;5.97;;;4.55;;
54388;SDS011;40975;50.390;8.640;2023-05-23T06:29:37;5.63;;;3.80;;
54388;SDS011;40975;50.390;8.640;2023-05-23T06:32:03;4.82;;;3.75;;
54388;SDS011;40975;50.390;8.640;2023-05-23T06:34:29;4.07;;;3.30;;
54388;SDS011;40975;50.390;8.640;2023-05-23T06:36:54;6.05;;;4.13;;
54388;SDS011;40975;50.390;8.640;2023-05-23T06:39:20;5.20;;;4.50;;
54388;SDS011;40975;50.390;8.640;2023-05-23T06:41:45;8.05;;;4.95;;
54388;SDS011;40975;50.390;8.640;2023-05-23T06:44:11;8.45;;;4.95;;
54388;SDS011;40975;50.390;8.640;2023-05-23T06:46:39;6.55;;;4.75;;
54388;SDS011;40975;50.390;8.640;2023-05-23T06:49:04;7.20;;;5.40;;
54388;SDS011;40975;50.390;8.640;2023-05-23T06:51:30;9.25;;;5.50;;
54388;SDS011;40975;50.390;8.640;2023-05-23T06:53:55;8.80;;;5.00;;
54388;SDS011;40975;50.390;8.640;2023-05-23T06:56:24;6.38;;;4.68;;
54388;SDS011;40975;50.390;8.640;2023-05-23T06:58:55;7.50;;;5.40;;
54388;SDS011;40975;50.390;8.640;2023-05-23T07:01:20;6.55;;;4.95;;
54388;SDS011;40975;50.390;8.640;2023-05-23T07:03:47;6.60;;;4.75;;
54388;SDS011;40975;50.390;8.640;2023-05-23T07:06:12;7.80;;;5.03;;
54388;SDS011;40975;50.390;8.640;2023-05-23T07:08:39;7.15;;;4.95;;
54388;SDS011;40975;50.390;8.640;2023-05-23T07:11:04;6.72;;;5.68;;
54388;SDS011;40975;50.390;8.640;2023-05-23T07:13:42;6.65;;;5.32;;
54388;SDS011;40975;50.390;8.640;2023-05-23T07:16:13;6.38;;;5.13;;
54388;SDS011;40975;50.390;8.640;2023-05-23T07:18:50;7.07;;;4.90;;
54388;SDS011;40975;50.390;8.640;2023-05-23T07:21:16;7.07;;;5.50;;
54388;SDS011;40975;50.390;8.640;2023-05-23T07:23:41;5.47;;;4.45;;
54388;SDS011;40975;50.390;8.640;2023-05-23T07:26:07;7.97;;;5.18;;
54388;SDS011;40975;50.390;8.640;2023-05-23T07:28:48;6.07;;;4.97;;
54388;SDS011;40975;50.390;8.640;2023-05-23T07:31:14;6.72;;;4.72;;
54388;SDS011;40975;50.390;8.640;2023-05-23T07:33:41;5.15;;;4.50;;
54388;SDS011;40975;50.390;8.640;2023-05-23T07:36:09;6.15;;;5.07;;
54388;SDS011;40975;50.390;8.640;2023-05-23T07:38:35;5.20;;;4.45;;
54388;SDS011;40975;50.390;8.640;2023-05-23T07:41:00;7.90;;;4.57;;
54388;SDS011;40975;50.390;8.640;2023-05-23T07:43:26;5.50;;;4.78;;
54388;SDS011;40975;50.390;8.640;2023-05-23T07:45:51;5.90;;;5.22;;
54388;SDS011;40975;50.390;8.640;2023-05-23T07:48:17;6.20;;;4.65;;
54388;SDS011;40975;50.390;8.640;2023-05-23T07:50:43;5.40;;;4.60;;
54388;SDS011;40975;50.390;8.640;2023-05-23T07:53:08;5.97;;;4.72;;
54388;SDS011;40975;50.390;8.640;2023-05-23T07:55:34;6.78;;;4.97;;
54388;SDS011;40975;50.390;8.640;2023-05-23T07:58:00;6.13;;;4.38;;
54388;SDS011;40975;50.390;8.640;2023-05-23T08:00:26;6.63;;;4.82;;
54388;SDS011;40975;50.390;8.640;2023-05-23T08:02:58;4.78;;;3.97;;
54388;SDS011;40975;50.390;8.640;2023-05-23T08:05:29;4.03;;;3.63;;
54388;SDS011;40975;50.390;8.640;2023-05-23T08:07:56;4.20;;;3.65;;
54388;SDS011;40975;50.390;8.640;2023-05-23T08:10:22;3.63;;;3.33;;
54388;SDS011;40975;50.390;8.640;2023-05-23T08:12:48;4.03;;;3.10;;
54388;SDS011;40975;50.390;8.640;2023-05-23T08:15:16;3.20;;;2.90;;
54388;SDS011;40975;50.390;8.640;2023-05-23T08:17:49;3.22;;;2.67;;
54388;SDS011;40975;50.390;8.640;2023-05-23T08:20:16;4.10;;;2.75;;
54388;SDS011;40975;50.390;8.640;2023-05-23T08:22:44;2.60;;;2.40;;
54388;SDS011;40975;50.390;8.640;2023-05-23T08:25:09;3.05;;;2.75;;
54388;SDS011;40975;50.390;8.640;2023-05-23T08:27:37;2.47;;;2.28;;
54388;SDS011;40975;50.390;8.640;2023-05-23T08:30:13;3.03;;;2.67;;
54388;SDS011;40975;50.390;8.640;2023-05-23T08:32:39;2.45;;;2.25;;
54388;SDS011;40975;50.390;8.640;2023-05-23T08:35:04;2.60;;;2.40;;
54388;SDS011;40975;50.390;8.640;2023-05-23T08:37:31;2.67;;;2.28;;
54388;SDS011;40975;50.390;8.640;2023-05-23T08:39:56;3.53;;;2.10;;
54388;SDS011;40975;50.390;8.640;2023-05-23T08:42:51;2.80;;;2.50;;
54388;SDS011;40975;50.390;8.640;2023-05-23T08:45:17;2.47;;;2.13;;
54388;SDS011;40975;50.390;8.640;2023-05-23T08:47:43;2.55;;;2.17;;
54388;SDS011;40975;50.390;8.640;2023-05-23T08:50:13;2.35;;;2.15;;
54388;SDS011;40975;50.390;8.640;2023-05-23T08:52:54;5.07;;;2.33;;
54388;SDS011;40975;50.390;8.640;2023-05-23T08:55:25;2.60;;;2.40;;
54388;SDS011;40975;50.390;8.640;2023-05-23T08:57:52;3.03;;;2.35;;
54388;SDS011;40975;50.390;8.640;2023-05-23T09:00:30;2.92;;;2.33;;
54388;SDS011;40975;50.390;8.640;2023-05-23T09:02:57;3.55;;;2.58;;
54388;SDS011;40975;50.390;8.640;2023-05-23T09:05:42;4.75;;;2.70;;
54388;SDS011;40975;50.390;8.640;2023-05-23T09:08:08;2.15;;;1.88;;
54388;SDS011;40975;50.390;8.640;2023-05-23T09:10:34;2.63;;;2.13;;
54388;SDS011;40975;50.390;8.640;2023-05-23T09:13:00;3.28;;;2.17;;
54388;SDS011;40975;50.390;8.640;2023-05-23T09:15:26;3.38;;;2.15;;
54388;SDS011;40975;50.390;8.640;2023-05-23T09:17:52;4.93;;;2.35;;
54388;SDS011;40975;50.390;8.640;2023-05-23T09:20:18;2.75;;;1.98;;
54388;SDS011;40975;50.390;8.640;2023-05-23T09:22:51;2.17;;;1.90;;
54388;SDS011;40975;50.390;8.640;2023-05-23T09:25:17;3.53;;;2.00;;
54388;SDS011;40975;50.390;8.640;2023-05-23T09:27:44;2.70;;;2.45;;
54388;SDS011;40975;50.390;8.640;2023-05-23T09:30:09;2.38;;;2.03;;
54388;SDS011;40975;50.390;8.640;2023-05-23T09:32:35;2.88;;;2.33;;
54388;SDS011;40975;50.390;8.640;2023-05-23T09:35:02;3.65;;;2.35;;
54388;SDS011;40975;50.390;8.640;2023-05-23T09:37:30;2.45;;;2.17;;
54388;SDS011;40975;50.390;8.640;2023-05-23T09:39:57;6.10;;;2.60;;
54388;SDS011;40975;50.390;8.640;2023-05-23T09:42:23;2.80;;;2.20;;
54388;SDS011;40975;50.390;8.640;2023-05-23T09:44:49;3.85;;;2.20;;
54388;SDS011;40975;50.390;8.640;2023-05-23T09:47:15;3.17;;;2.35;;
54388;SDS011;40975;50.390;8.640;2023-05-23T09:49:44;3.15;;;2.22;;
54388;SDS011;40975;50.390;8.640;2023-05-23T09:52:11;4.07;;;2.40;;
54388;SDS011;40975;50.390;8.640;2023-05-23T09:54:37;3.40;;;2.40;;
54388;SDS011;40975;50.390;8.640;2023-05-23T09:57:03;2.90;;;2.40;;
54388;SDS011;40975;50.390;8.640;2023-05-23T09:59:34;3.03;;;2.65;;
54388;SDS011;40975;50.390;8.640;2023-05-23T10:02:03;2.65;;;2.13;;
54388;SDS011;40975;50.390;8.640;2023-05-23T10:04:33;4.05;;;2.10;;
54388;SDS011;40975;50.390;8.640;2023-05-23T10:07:04;2.78;;;1.90;;
54388;SDS011;40975;50.390;8.640;2023-05-23T10:09:38;2.90;;;2.28;;
54388;SDS011;40975;50.390;8.640;2023-05-23T10:12:32;2.55;;;1.95;;
54388;SDS011;40975;50.390;8.640;2023-05-23T10:15:04;3.08;;;1.90;;
54388;SDS011;40975;50.390;8.640;2023-05-23T10:20:16;2.33;;;2.08;;
54388;SDS011;40975;50.390;8.640;2023-05-23T10:22:43;2.58;;;2.17;;
54388;SDS011;40975;50.390;8.640;2023-05-23T10:25:08;2.75;;;2.55;;
54388;SDS011;40975;50.390;8.640;2023-05-23T10:27:35;2.63;;;2.22;;
54388;SDS011;40975;50.390;8.640;2023-05-23T10:30:02;3.03;;;2.22;;
54388;SDS011;40975;50.390;8.640;2023-05-23T10:32:28;2.40;;;2.08;;
54388;SDS011;40975;50.390;8.640;2023-05-23T10:37:49;3.50;;;2.88;;
54388;SDS011;40975;50.390;8.640;2023-05-23T10:40:27;3.53;;;1.92;;
54388;SDS011;40975;50.390;8.640;2023-05-23T10:43:01;3.58;;;2.00;;
54388;SDS011;40975;50.390;8.640;2023-05-23T10:45:38;4.57;;;1.60;;
54388;SDS011;40975;50.390;8.640;2023-05-23T10:48:18;2.40;;;2.10;;
54388;SDS011;40975;50.390;8.640;2023-05-23T10:51:11;2.10;;;1.90;;
54388;SDS011;40975;50.390;8.640;2023-05-23T10:53:42;2.38;;;1.65;;
54388;SDS011;40975;50.390;8.640;2023-05-23T10:56:09;1.83;;;1.58;;
54388;SDS011;40975;50.390;8.640;2023-05-23T10:58:43;3.25;;;1.67;;
54388;SDS011;40975;50.390;8.640;2023-05-23T11:01:08;2.65;;;1.92;;
54388;SDS011;40975;50.390;8.640;2023-05-23T11:09:18;1.40;;;1.20;;
54388;SDS011;40975;50.390;8.640;2023-05-23T11:11:55;2.28;;;1.50;;
54388;SDS011;40975;50.390;8.640;2023-05-23T11:14:33;1.75;;;1.20;;
54388;SDS011;40975;50.390;8.640;2023-05-23T11:17:17;0.88;;;0.88;;
54388;SDS011;40975;50.390;8.640;2023-05-23T11:22:33;1.73;;;1.20;;
54388;SDS011;40975;50.390;8.640;2023-05-23T11:25:01;1.10;;;1.00;;
54388;SDS011;40975;50.390;8.640;2023-05-23T11:27:32;1.00;;;0.90;;
54388;SDS011;40975;50.390;8.640;2023-05-23T11:30:00;0.98;;;0.90;;
54388;SDS011;40975;50.390;8.640;2023-05-23T11:32:28;2.05;;;1.65;;
54388;SDS011;40975;50.390;8.640;2023-05-23T11:34:57;1.80;;;0.88;;
54388;SDS011;40975;50.390;8.640;2023-05-23T11:37:23;1.58;;;1.10;;
54388;SDS011;40975;50.390;8.640;2023-05-23T11:39:50;1.30;;;1.10;;
54388;SDS011;40975;50.390;8.640;2023-05-23T11:42:15;0.88;;;0.88;;
54388;SDS011;40975;50.390;8.640;2023-05-23T11:44:40;1.00;;;0.85;;
54388;SDS011;40975;50.390;8.640;2023-05-23T11:47:06;2.40;;;0.82;;
54388;SDS011;40975;50.390;8.640;2023-05-23T11:49:36;1.00;;;0.90;;
54388;SDS011;40975;50.390;8.640;2023-05-23T11:52:02;0.95;;;0.73;;
54388;SDS011;40975;50.390;8.640;2023-05-23T11:54:29;0.65;;;0.63;;
54388;SDS011;40975;50.390;8.640;2023-05-23T11:56:54;0.77;;;0.75;;
54388;SDS011;40975;50.390;8.640;2023-05-23T11:59:23;0.90;;;0.80;;
54388;SDS011;40975;50.390;8.640;2023-05-23T12:01:50;1.00;;;0.60;;
54388;SDS011;40975;50.390;8.640;2023-05-23T12:04:16;0.75;;;0.73;;
54388;SDS011;40975;50.390;8.640;2023-05-23T12:06:44;1.52;;;0.80;;
54388;SDS011;40975;50.390;8.640;2023-05-23T12:09:12;0.87;;;0.70;;
54388;SDS011;40975;50.390;8.640;2023-05-23T12:11:38;0.82;;;0.80;;
54388;SDS011;40975;50.390;8.640;2023-05-23T12:14:05;1.00;;;0.90;;
54388;SDS011;40975;50.390;8.640;2023-05-23T12:16:32;1.20;;;1.10;;
54388;SDS011;40975;50.390;8.640;2023-05-23T12:18:58;1.60;;;1.02;;
54388;SDS011;40975;50.390;8.640;2023-05-23T12:21:25;1.42;;;1.25;;
54388;SDS011;40975;50.390;8.640;2023-05-23T12:23:51;2.17;;;1.20;;
54388;SDS011;40975;50.390;8.640;2023-05-23T12:26:17;1.10;;;0.95;;
54388;SDS011;40975;50.390;8.640;2023-05-23T12:28:42;1.58;;;1.40;;
54388;SDS011;40975;50.390;8.640;2023-05-23T12:31:19;2.33;;;1.30;;
54388;SDS011;40975;50.390;8.640;2023-05-23T12:33:46;1.75;;;1.38;;
54388;SDS011;40975;50.390;8.640;2023-05-23T12:36:20;1.52;;;1.30;;
54388;SDS011;40975;50.390;8.640;2023-05-23T12:38:46;1.63;;;1.30;;
54388;SDS011;40975;50.390;8.640;2023-05-23T12:41:16;1.45;;;1.33;;
54388;SDS011;40975;50.390;8.640;2023-05-23T12:43:50;1.77;;;1.27;;
54388;SDS011;40975;50.390;8.640;2023-05-23T12:46:17;2.67;;;1.48;;
54388;SDS011;40975;50.390;8.640;2023-05-23T12:48:43;3.97;;;1.85;;
54388;SDS011;40975;50.390;8.640;2023-05-23T12:51:08;3.70;;;2.17;;
54388;SDS011;40975;50.390;8.640;2023-05-23T12:53:34;2.53;;;2.03;;
54388;SDS011;40975;50.390;8.640;2023-05-23T12:56:00;3.47;;;2.10;;
54388;SDS011;40975;50.390;8.640;2023-05-23T12:58:25;3.13;;;2.20;;
54388;SDS011;40975;50.390;8.640;2023-05-23T13:00:51;3.10;;;2.38;;
54388;SDS011;40975;50.390;8.640;2023-05-23T13:03:16;2.30;;;2.10;;
54388;SDS011;40975;50.390;8.640;2023-05-23T13:05:42;5.68;;;2.53;;
54388;SDS011;40975;50.390;8.640;2023-05-23T13:08:07;2.78;;;2.17;;
54388;SDS011;40975;50.390;8.640;2023-05-23T13:10:33;3.35;;;2.22;;
54388;SDS011;40975;50.390;8.640;2023-05-23T13:12:58;4.22;;;3.00;;
54388;SDS011;40975;50.390;8.640;2023-05-23T13:15:24;2.40;;;2.20;;
54388;SDS011;40975;50.390;8.640;2023-05-23T13:17:49;5.03;;;2.80;;
54388;SDS011;40975;50.390;8.640;2023-05-23T13:20:14;4.00;;;2.38;;
54388;SDS011;40975;50.390;8.640;2023-05-23T13:22:40;2.63;;;2.42;;
54388;SDS011;40975;50.390;8.640;2023-05-23T13:25:06;4.47;;;2.60;;
54388;SDS011;40975;50.390;8.640;2023-05-23T13:27:32;2.88;;;2.45;;
54388;SDS011;40975;50.390;8.640;2023-05-23T13:29:58;3.58;;;2.63;;
54388;SDS011;40975;50.390;8.640;2023-05-23T13:32:23;5.28;;;2.67;;
54388;SDS011;40975;50.390;8.640;2023-05-23T13:34:49;3.47;;;2.58;;
54388;SDS011;40975;50.390;8.640;2023-05-23T13:37:14;3.90;;;2.58;;
54388;SDS011;40975;50.390;8.640;2023-05-23T13:39:40;3.88;;;2.63;;
54388;SDS011;40975;50.390;8.640;2023-05-23T13:42:05;4.22;;;2.70;;
54388;SDS011;40975;50.390;8.640;2023-05-23T13:44:31;2.90;;;2.40;;
54388;SDS011;40975;50.390;8.640;2023-05-23T13:47:00;3.13;;;2.65;;
54388;SDS011;40975;50.390;8.640;2023-05-23T13:49:34;3.20;;;2.55;;
54388;SDS011;40975;50.390;8.640;2023-05-23T13:51:59;7.45;;;3.20;;
54388;SDS011;40975;50.390;8.640;2023-05-23T13:54:24;5.28;;;3.70;;
54388;SDS011;40975;50.390;8.640;2023-05-23T13:56:50;6.10;;;3.65;;
54388;SDS011;40975;50.390;8.640;2023-05-23T13:59:16;5.57;;;4.05;;
54388;SDS011;40975;50.390;8.640;2023-05-23T14:01:45;5.35;;;4.15;;
54388;SDS011;40975;50.390;8.640;2023-05-23T14:04:11;6.57;;;3.47;;
54388;SDS011;40975;50.390;8.640;2023-05-23T14:06:36;4.63;;;3.13;;
54388;SDS011;40975;50.390;8.640;2023-05-23T14:09:02;4.07;;;3.10;;
54388;SDS011;40975;50.390;8.640;2023-05-23T14:11:27;4.55;;;2.80;;
54388;SDS011;40975;50.390;8.640;2023-05-23T14:13:53;3.90;;;2.90;;
54388;SDS011;40975;50.390;8.640;2023-05-23T14:16:18;5.13;;;3.08;;
54388;SDS011;40975;50.390;8.640;2023-05-23T14:18:43;4.57;;;2.75;;
54388;SDS011;40975;50.390;8.640;2023-05-23T14:21:09;4.40;;;3.60;;
54388;SDS011;40975;50.390;8.640;2023-05-23T14:23:34;3.05;;;2.75;;
54388;SDS011;40975;50.390;8.640;2023-05-23T14:26:00;3.53;;;2.70;;
54388;SDS011;40975;50.390;8.640;2023-05-23T14:28:25;4.47;;;2.95;;
54388;SDS011;40975;50.390;8.640;2023-05-23T14:30:51;3.58;;;2.60;;
54388;SDS011;40975;50.390;8.640;2023-05-23T14:33:16;3.50;;;2.90;;
54388;SDS011;40975;50.390;8.640;2023-05-23T14:35:42;3.05;;;2.35;;
54388;SDS011;40975;50.390;8.640;2023-05-23T14:38:07;3.17;;;2.05;;
54388;SDS011;40975;50.390;8.640;2023-05-23T14:40:32;3.25;;;2.10;;
54388;SDS011;40975;50.390;8.640;2023-05-23T14:42:58;3.22;;;2.33;;
54388;SDS011;40975;50.390;8.640;2023-05-23T14:45:23;2.25;;;1.90;;
54388;SDS011;40975;50.390;8.640;2023-05-23T14:47:48;2.95;;;1.90;;
54388;SDS011;40975;50.390;8.640;2023-05-23T14:50:13;2.08;;;1.33;;
54388;SDS011;40975;50.390;8.640;2023-05-23T14:52:39;1.83;;;1.65;;
54388;SDS011;40975;50.390;8.640;2023-05-23T14:55:05;2.17;;;1.70;;
54388;SDS011;40975;50.390;8.640;2023-05-23T14:57:31;2.53;;;2.20;;
54388;SDS011;40975;50.390;8.640;2023-05-23T14:59:56;1.63;;;1.40;;